Weather at Suvarnabhumi Airport

Public forecast

Using degrees Celsius for public forecast. Weather courtesy of forecast.io.

Current aviation weather report (METAR) for Suvarnabhumi Airport

Retrieved 2020/09/23 08:30 UTC (4 minutes ago):

VTBS 230830Z 18008KT 7000 -TSRA FEW020CB SCT030 BKN100 28/26 Q1005 RERA BECMG TL0900 NSW

Aviation forecast (TAF) for Suvarnabhumi Airport

Retrieved 2020/09/23 06:00 UTC (3 hours ago):

TAF VTBS 230500Z 2306/2412 19008KT 9000 FEW020 SCT080 TEMPO 2309/2315 11015KT 4000 TSRA FEW018CB SCT030 BKN080 BECMG 2318/2320 12005KT BECMG 2400/2402 34005KT